Time,TemperatureF,DewpointF,PressureIn,WindDirection,WindDirectionDegrees,WindSpeedMPH,WindSpeedGustMPH,Humidity,HourlyPrecipIn,Conditions,Clouds,dailyrainin,SoftwareType,DateUTC
2013-01-14 00:01:00,63.9,61.8,30.14,West,260,0.0,0.0,93,0.00,,,0.01,Wunderground v.1.15,2013-01-14 05:01:00,
2013-01-14 00:10:00,63.5,61.4,30.14,West,260,0.0,0.0,93,0.00,,,0.00,Wunderground v.1.15,2013-01-14 05:10:00,
2013-01-14 00:20:00,63.3,61.2,30.13,West,260,0.0,0.0,93,0.00,,,0.00,Wunderground v.1.15,2013-01-14 05:20:00,
2013-01-14 00:30:00,63.0,60.9,30.13,West,260,0.0,0.0,93,0.00,,,0.00,Wunderground v.1.15,2013-01-14 05:30:00,
2013-01-14 00:40:00,62.9,60.8,30.13,West,260,0.0,0.0,93,0.00,,,0.00,Wunderground v.1.15,2013-01-14 05:40:00,
2013-01-14 00:50:00,62.6,60.5,30.13,SSW,205,0.0,2.0,93,0.00,,,0.00,Wunderground v.1.15,2013-01-14 05:50:00,
2013-01-14 01:00:00,61.6,59.6,30.13,SSW,205,0.0,0.0,93,0.00,,,0.00,Wunderground v.1.15,2013-01-14 06:00:00,
2013-01-14 01:11:00,62.0,59.6,30.13,SW,227,0.0,0.0,92,0.00,,,0.00,Wunderground v.1.15,2013-01-14 06:11:00,
2013-01-14 01:20:00,62.2,59.8,30.14,SW,227,0.0,0.0,92,0.00,,,0.00,Wunderground v.1.15,2013-01-14 06:20:00,
2013-01-14 01:30:00,62.2,59.8,30.13,SW,228,0.0,0.0,92,0.00,,,0.00,Wunderground v.1.15,2013-01-14 06:30:00,
2013-01-14 01:40:00,62.3,60.2,30.13,SW,234,0.0,0.0,93,0.00,,,0.00,Wunderground v.1.15,2013-01-14 06:40:00,
2013-01-14 01:51:00,62.4,60.3,30.14,WSW,254,0.0,0.0,93,0.00,,,0.00,Wunderground v.1.15,2013-01-14 06:51:00,
2013-01-14 02:00:00,62.4,60.3,30.15,SW,234,0.0,0.0,93,0.00,,,0.00,Wunderground v.1.15,2013-01-14 07:00:00,
2013-01-14 02:10:00,62.4,60.3,30.15,West,259,0.0,0.0,93,0.00,,,0.00,Wunderground v.1.15,2013-01-14 07:10:00,
2013-01-14 02:21:00,62.1,60.1,30.16,West,259,0.0,0.0,93,0.00,,,0.00,Wunderground v.1.15,2013-01-14 07:21:00,
2013-01-14 02:30:00,62.1,60.1,30.15,West,259,0.0,0.0,93,0.00,,,0.00,Wunderground v.1.15,2013-01-14 07:30:00,
2013-01-14 02:40:00,61.9,59.9,30.15,West,260,0.0,0.0,93,0.00,,,0.00,Wunderground v.1.15,2013-01-14 07:40:00,
2013-01-14 02:51:00,61.6,59.6,30.15,WSW,257,0.0,0.0,93,0.00,,,0.00,Wunderground v.1.15,2013-01-14 07:51:00,
2013-01-14 03:00:00,61.4,59.4,30.15,WSW,257,0.0,0.0,93,0.00,,,0.00,Wunderground v.1.15,2013-01-14 08:00:00,
2013-01-14 03:10:00,61.3,59.6,30.15,WSW,257,0.0,0.0,94,0.00,,,0.00,Wunderground v.1.15,2013-01-14 08:10:00,
2013-01-14 03:21:00,61.3,59.6,30.14,WSW,257,0.0,0.0,94,0.00,,,0.00,Wunderground v.1.15,2013-01-14 08:21:00,
2013-01-14 03:31:00,61.3,59.6,30.14,SW,230,0.0,0.0,94,0.00,,,0.00,Wunderground v.1.15,2013-01-14 08:31:00,
2013-01-14 03:40:00,60.9,59.5,30.14,SSW,210,1.0,1.0,95,0.00,,,0.00,Wunderground v.1.15,2013-01-14 08:40:00,
2013-01-14 03:51:00,60.9,59.2,30.13,SSW,211,1.0,1.0,94,0.00,,,0.00,Wunderground v.1.15,2013-01-14 08:51:00,
2013-01-14 04:00:00,59.3,57.9,30.11,SW,214,3.0,3.0,95,0.00,,,0.00,Wunderground v.1.15,2013-01-14 09:00:00,
2013-01-14 04:10:00,59.1,57.7,30.11,SSW,203,2.0,2.0,95,0.00,,,0.00,Wunderground v.1.15,2013-01-14 09:10:00,
2013-01-14 04:20:00,59.2,57.5,30.11,SW,219,1.0,1.0,94,0.00,,,0.00,Wunderground v.1.15,2013-01-14 09:20:00,
2013-01-14 04:31:00,59.1,57.4,30.11,West,271,0.0,0.0,94,0.00,,,0.00,Wunderground v.1.15,2013-01-14 09:31:00,
2013-01-14 04:40:00,59.8,57.8,30.11,West,264,0.0,0.0,93,0.00,,,0.00,Wunderground v.1.15,2013-01-14 09:40:00,
2013-01-14 04:51:00,60.0,58.3,30.11,SW,219,0.0,0.0,94,0.00,,,0.00,Wunderground v.1.15,2013-01-14 09:51:00,
2013-01-14 05:01:00,60.1,58.4,30.11,SW,226,0.0,0.0,94,0.00,,,0.00,Wunderground v.1.15,2013-01-14 10:01:00,
2013-01-14 05:10:00,60.1,58.7,30.11,SW,219,2.0,5.0,95,0.00,,,0.00,Wunderground v.1.15,2013-01-14 10:10:00,
2013-01-14 05:21:00,59.7,58.0,30.09,SSW,213,1.0,1.0,94,0.00,,,0.00,Wunderground v.1.15,2013-01-14 10:21:00,
2013-01-14 05:30:00,60.2,58.5,30.10,WSW,238,1.0,1.0,94,0.00,,,0.00,Wunderground v.1.15,2013-01-14 10:30:00,
2013-01-14 05:41:00,59.8,58.4,30.10,SW,221,1.0,1.0,95,0.00,,,0.00,Wunderground v.1.15,2013-01-14 10:41:00,
2013-01-14 05:50:00,59.8,58.1,30.10,SSW,211,0.0,0.0,94,0.00,,,0.00,Wunderground v.1.15,2013-01-14 10:50:00,
2013-01-14 06:01:00,60.2,58.5,30.11,SW,215,0.0,1.0,94,0.00,,,0.00,Wunderground v.1.15,2013-01-14 11:01:00,
2013-01-14 06:10:00,60.6,58.6,30.11,WSW,257,1.0,1.0,93,0.00,,,0.00,Wunderground v.1.15,2013-01-14 11:10:00,
2013-01-14 06:21:00,60.9,59.2,30.12,West,261,0.0,0.0,94,0.00,,,0.00,Wunderground v.1.15,2013-01-14 11:21:00,
2013-01-14 06:30:00,61.1,59.4,30.13,West,261,0.0,0.0,94,0.00,,,0.00,Wunderground v.1.15,2013-01-14 11:30:00,
2013-01-14 06:41:00,61.0,59.6,30.13,West,263,0.0,0.0,95,0.00,,,0.00,Wunderground v.1.15,2013-01-14 11:41:00,
2013-01-14 06:50:00,60.5,59.1,30.13,West,263,0.0,0.0,95,0.00,,,0.00,Wunderground v.1.15,2013-01-14 11:50:00,
2013-01-14 07:00:00,59.9,58.5,30.14,West,263,0.0,0.0,95,0.00,,,0.00,Wunderground v.1.15,2013-01-14 12:00:00,
2013-01-14 07:10:00,59.2,57.8,30.14,West,263,0.0,0.0,95,0.00,,,0.00,Wunderground v.1.15,2013-01-14 12:10:00,
2013-01-14 07:20:00,59.2,57.8,30.15,West,263,0.0,0.0,95,0.00,,,0.00,Wunderground v.1.15,2013-01-14 12:20:00,
2013-01-14 07:31:00,58.9,57.5,30.15,West,263,0.0,0.0,95,0.00,,,0.00,Wunderground v.1.15,2013-01-14 12:31:00,
2013-01-14 07:40:00,59.0,57.3,30.15,West,263,0.0,0.0,94,0.00,,,0.00,Wunderground v.1.15,2013-01-14 12:40:00,
2013-01-14 07:51:00,59.6,57.6,30.16,West,263,0.0,0.0,93,0.00,,,0.00,Wunderground v.1.15,2013-01-14 12:51:00,
2013-01-14 08:01:00,60.2,58.2,30.16,West,263,0.0,0.0,93,0.00,,,0.00,Wunderground v.1.15,2013-01-14 13:01:00,
2013-01-14 08:11:00,60.9,58.9,30.16,West,263,0.0,0.0,93,0.00,,,0.00,Wunderground v.1.15,2013-01-14 13:11:00,
2013-01-14 08:20:00,61.4,59.7,30.17,West,263,0.0,0.0,94,0.00,,,0.00,Wunderground v.1.15,2013-01-14 13:20:00,
2013-01-14 08:31:00,61.9,60.2,30.17,West,263,0.0,0.0,94,0.00,,,0.00,Wunderground v.1.15,2013-01-14 13:31:00,
2013-01-14 08:41:00,62.5,60.7,30.17,West,263,0.0,0.0,94,0.00,,,0.00,Wunderground v.1.15,2013-01-14 13:41:00,
2013-01-14 08:50:00,63.1,61.3,30.18,West,263,0.0,0.0,94,0.00,,,0.00,Wunderground v.1.15,2013-01-14 13:50:00,
2013-01-14 09:01:00,63.9,62.4,30.19,West,262,0.0,0.0,95,0.00,,,0.00,Wunderground v.1.15,2013-01-14 14:01:00,
2013-01-14 09:11:00,64.6,63.1,30.19,West,262,0.0,0.0,95,0.00,,,0.00,Wunderground v.1.15,2013-01-14 14:11:00,
2013-01-14 09:21:00,65.9,64.4,30.18,SSW,194,0.0,0.0,95,0.00,,,0.00,Wunderground v.1.15,2013-01-14 14:21:00,
2013-01-14 09:31:00,65.8,64.0,30.18,South,178,0.0,0.0,94,0.00,,,0.00,Wunderground v.1.15,2013-01-14 14:31:00,
2013-01-14 09:41:00,66.1,64.0,30.18,South,177,0.0,0.0,93,0.00,,,0.00,Wunderground v.1.15,2013-01-14 14:41:00,
2013-01-14 09:51:00,65.6,62.6,30.18,SSE,167,0.0,0.0,90,0.00,,,0.00,Wunderground v.1.15,2013-01-14 14:51:00,
2013-01-14 10:01:00,65.2,62.5,30.19,SSE,167,0.0,0.0,91,0.00,,,0.00,Wunderground v.1.15,2013-01-14 15:01:00,
2013-01-14 10:11:00,65.4,62.4,30.19,SSE,164,0.0,0.0,90,0.00,,,0.00,Wunderground v.1.15,2013-01-14 15:11:00,
2013-01-14 10:21:00,65.6,62.6,30.18,SSE,163,0.0,0.0,90,0.00,,,0.00,Wunderground v.1.15,2013-01-14 15:21:00,
2013-01-14 10:31:00,65.7,62.4,30.17,South,191,1.0,2.0,89,0.00,,,0.00,Wunderground v.1.15,2013-01-14 15:31:00,
2013-01-14 10:41:00,64.5,61.2,30.17,SSW,192,3.0,5.0,89,0.00,,,0.00,Wunderground v.1.15,2013-01-14 15:41:00,
2013-01-14 10:50:00,63.5,60.5,30.17,SW,215,4.0,5.0,90,0.00,,,0.00,Wunderground v.1.15,2013-01-14 15:50:00,
2013-01-14 11:01:00,63.2,60.8,30.16,South,190,5.0,5.0,92,0.00,,,0.00,Wunderground v.1.15,2013-01-14 16:01:00,
2013-01-14 11:11:00,63.2,60.8,30.16,SSW,192,5.0,5.0,92,0.00,,,0.00,Wunderground v.1.15,2013-01-14 16:11:00,
2013-01-14 11:21:00,63.2,60.8,30.16,SSW,196,4.0,5.0,92,0.00,,,0.00,Wunderground v.1.15,2013-01-14 16:21:00,
2013-01-14 11:31:00,67.2,65.4,30.15,West,267,2.0,2.0,94,0.00,,,0.00,Wunderground v.1.15,2013-01-14 16:31:00,
2013-01-14 11:41:00,70.4,66.3,30.15,SW,226,2.0,2.0,87,0.00,,,0.00,Wunderground v.1.15,2013-01-14 16:41:00,
2013-01-14 11:51:00,72.0,66.9,30.15,South,191,2.0,2.0,84,0.00,,,0.00,Wunderground v.1.15,2013-01-14 16:51:00,
2013-01-14 12:00:00,73.3,66.8,30.14,West,264,1.0,1.0,80,0.00,,,0.00,Wunderground v.1.15,2013-01-14 17:00:00,
2013-01-14 12:11:00,73.5,65.8,30.14,WSW,250,2.0,2.0,77,0.00,,,0.00,Wunderground v.1.15,2013-01-14 17:11:00,
2013-01-14 12:21:00,73.6,65.9,30.13,WSW,248,1.0,1.0,77,0.00,,,0.00,Wunderground v.1.15,2013-01-14 17:21:00,
2013-01-14 12:31:00,73.9,66.2,30.12,West,267,1.0,1.0,77,0.00,,,0.00,Wunderground v.1.15,2013-01-14 17:31:00,
2013-01-14 12:41:00,73.9,66.2,30.12,West,271,1.0,1.0,77,0.00,,,0.00,Wunderground v.1.15,2013-01-14 17:41:00,
2013-01-14 12:51:00,73.8,66.1,30.12,West,260,1.0,1.0,77,0.00,,,0.00,Wunderground v.1.15,2013-01-14 17:51:00,
2013-01-14 13:01:00,73.8,66.1,30.11,West,279,1.0,1.0,77,0.00,,,0.00,Wunderground v.1.15,2013-01-14 18:01:00,
2013-01-14 13:10:00,74.0,66.0,30.11,WSW,250,1.0,2.0,76,0.00,,,0.00,Wunderground v.1.15,2013-01-14 18:10:00,
2013-01-14 13:21:00,74.0,66.3,30.11,SSW,213,1.0,1.0,77,0.00,,,0.00,Wunderground v.1.15,2013-01-14 18:21:00,
2013-01-14 13:31:00,74.3,65.9,30.11,SW,232,1.0,1.0,75,0.00,,,0.00,Wunderground v.1.15,2013-01-14 18:31:00,
2013-01-14 13:41:00,74.1,66.0,30.11,West,260,2.0,2.0,76,0.00,,,0.00,Wunderground v.1.15,2013-01-14 18:41:00,
2013-01-14 13:51:00,73.9,65.9,30.12,WSW,242,2.0,2.0,76,0.00,,,0.00,Wunderground v.1.15,2013-01-14 18:51:00,
2013-01-14 14:01:00,74.0,66.3,30.12,WSW,252,2.0,2.0,77,0.00,,,0.00,Wunderground v.1.15,2013-01-14 19:01:00,
2013-01-14 14:11:00,73.9,65.9,30.12,WSW,237,1.0,1.0,76,0.00,,,0.00,Wunderground v.1.15,2013-01-14 19:11:00,
2013-01-14 14:21:00,73.7,65.7,30.12,SSW,211,2.0,3.0,76,0.00,,,0.00,Wunderground v.1.15,2013-01-14 19:21:00,
2013-01-14 14:31:00,69.2,62.4,30.12,South,191,6.0,6.0,79,0.00,,,0.00,Wunderground v.1.15,2013-01-14 19:31:00,
2013-01-14 14:41:00,66.0,61.0,30.12,SSW,192,6.0,6.0,84,0.00,,,0.00,Wunderground v.1.15,2013-01-14 19:41:00,
2013-01-14 14:51:00,64.5,60.9,30.13,SSW,196,4.0,5.0,88,0.00,,,0.00,Wunderground v.1.15,2013-01-14 19:51:00,
2013-01-14 15:01:00,64.0,60.7,30.13,South,187,5.0,5.0,89,0.00,,,0.00,Wunderground v.1.15,2013-01-14 20:01:00,
2013-01-14 15:11:00,63.2,60.2,30.13,SSW,203,5.0,5.0,90,0.00,,,0.00,Wunderground v.1.15,2013-01-14 20:11:00,
2013-01-14 15:21:00,63.0,60.3,30.13,SSW,196,5.0,5.0,91,0.00,,,0.00,Wunderground v.1.15,2013-01-14 20:21:00,
2013-01-14 15:31:00,64.7,62.9,30.14,SW,223,2.0,2.0,94,0.00,,,0.00,Wunderground v.1.15,2013-01-14 20:31:00,
2013-01-14 15:41:00,66.3,63.3,30.14,SSW,199,4.0,4.0,90,0.00,,,0.00,Wunderground v.1.15,2013-01-14 20:41:00,
2013-01-14 15:51:00,65.2,61.9,30.14,SSW,194,5.0,5.0,89,0.00,,,0.00,Wunderground v.1.15,2013-01-14 20:51:00,
2013-01-14 16:01:00,64.4,61.7,30.14,SSW,200,5.0,5.0,91,0.00,,,0.00,Wunderground v.1.15,2013-01-14 21:01:00,
2013-01-14 16:11:00,64.7,62.0,30.14,SSW,213,5.0,6.0,91,0.00,,,0.00,Wunderground v.1.15,2013-01-14 21:11:00,
2013-01-14 16:21:00,64.2,61.5,30.14,South,187,5.0,7.0,91,0.00,,,0.00,Wunderground v.1.15,2013-01-14 21:21:00,
2013-01-14 16:31:00,63.8,61.4,30.14,SW,215,6.0,6.0,92,0.00,,,0.00,Wunderground v.1.15,2013-01-14 21:31:00,
2013-01-14 16:41:00,64.1,62.0,30.14,SSW,205,3.0,3.0,93,0.00,,,0.00,Wunderground v.1.15,2013-01-14 21:41:00,
2013-01-14 16:51:00,64.6,62.2,30.14,SSW,211,2.0,2.0,92,0.00,,,0.00,Wunderground v.1.15,2013-01-14 21:51:00,
2013-01-14 17:01:00,64.7,62.3,30.15,SSW,205,1.0,2.0,92,0.00,,,0.00,Wunderground v.1.15,2013-01-14 22:01:00,
2013-01-14 17:11:00,64.7,62.3,30.15,South,186,2.0,3.0,92,0.00,,,0.00,Wunderground v.1.15,2013-01-14 22:11:00,
2013-01-14 17:21:00,63.8,61.1,30.15,SSW,192,3.0,3.0,91,0.00,,,0.00,Wunderground v.1.15,2013-01-14 22:21:00,
2013-01-14 17:31:00,62.8,60.7,30.15,SSW,213,2.0,2.0,93,0.00,,,0.00,Wunderground v.1.15,2013-01-14 22:31:00,
2013-01-14 17:40:00,63.3,61.5,30.15,SW,217,2.0,2.0,94,0.00,,,0.00,Wunderground v.1.15,2013-01-14 22:40:00,
2013-01-14 17:51:00,62.7,60.9,30.16,SW,223,2.0,2.0,94,0.00,,,0.00,Wunderground v.1.15,2013-01-14 22:51:00,
2013-01-14 18:00:00,63.1,61.3,30.16,South,187,2.0,2.0,94,0.00,,,0.00,Wunderground v.1.15,2013-01-14 23:00:00,
2013-01-14 18:10:00,62.4,60.3,30.16,South,178,4.0,4.0,93,0.00,,,0.00,Wunderground v.1.15,2013-01-14 23:10:00,
2013-01-14 18:21:00,61.9,60.2,30.16,SSW,198,2.0,3.0,94,0.00,,,0.00,Wunderground v.1.15,2013-01-14 23:21:00,
2013-01-14 18:31:00,61.8,60.1,30.16,SSW,213,2.0,2.0,94,0.00,,,0.00,Wunderground v.1.15,2013-01-14 23:31:00,
2013-01-14 18:41:00,61.5,60.1,30.16,SW,215,1.0,1.0,95,0.00,,,0.00,Wunderground v.1.15,2013-01-14 23:41:00,
2013-01-14 18:51:00,62.1,60.4,30.17,SW,218,1.0,1.0,94,0.00,,,0.00,Wunderground v.1.15,2013-01-14 23:51:00,
2013-01-14 19:01:00,62.6,60.8,30.17,SSW,198,1.0,1.0,94,0.00,,,0.00,Wunderground v.1.15,2013-01-15 00:01:00,
2013-01-14 19:10:00,62.9,61.1,30.17,SSW,207,2.0,2.0,94,0.00,,,0.00,Wunderground v.1.15,2013-01-15 00:10:00,
2013-01-14 19:21:00,63.2,61.4,30.17,SW,215,2.0,3.0,94,0.00,,,0.00,Wunderground v.1.15,2013-01-15 00:21:00,
2013-01-14 19:31:00,62.6,61.1,30.16,SSW,199,2.0,2.0,95,0.00,,,0.00,Wunderground v.1.15,2013-01-15 00:31:00,
2013-01-14 19:41:00,61.9,60.5,30.16,SW,223,2.0,2.0,95,0.00,,,0.00,Wunderground v.1.15,2013-01-15 00:41:00,
2013-01-14 19:51:00,62.1,60.7,30.15,SW,215,1.0,1.0,95,0.00,,,0.00,Wunderground v.1.15,2013-01-15 00:51:00,
2013-01-14 20:01:00,62.1,60.4,30.15,SSW,212,1.0,1.0,94,0.00,,,0.00,Wunderground v.1.15,2013-01-15 01:01:00,
2013-01-14 20:11:00,62.2,60.5,30.15,SSW,209,1.0,2.0,94,0.00,,,0.00,Wunderground v.1.15,2013-01-15 01:11:00,
2013-01-14 20:21:00,62.0,60.3,30.15,SW,218,1.0,2.0,94,0.00,,,0.00,Wunderground v.1.15,2013-01-15 01:21:00,
2013-01-14 20:31:00,62.1,60.4,30.15,SW,217,2.0,2.0,94,0.00,,,0.00,Wunderground v.1.15,2013-01-15 01:31:00,
2013-01-14 20:41:00,62.1,60.4,30.15,SW,227,2.0,3.0,94,0.00,,,0.00,Wunderground v.1.15,2013-01-15 01:41:00,
2013-01-14 20:51:00,61.7,60.3,30.14,SSW,211,2.0,3.0,95,0.00,,,0.00,Wunderground v.1.15,2013-01-15 01:51:00,
2013-01-14 21:01:00,62.1,60.4,30.14,SSW,206,2.0,2.0,94,0.00,,,0.00,Wunderground v.1.15,2013-01-15 02:01:00,
2013-01-14 21:11:00,62.2,60.5,30.14,West,267,1.0,1.0,94,0.00,,,0.00,Wunderground v.1.15,2013-01-15 02:11:00,
2013-01-14 21:21:00,62.3,60.6,30.14,WSW,256,0.0,0.0,94,0.00,,,0.00,Wunderground v.1.15,2013-01-15 02:21:00,
2013-01-14 21:31:00,62.4,60.7,30.14,SW,221,1.0,2.0,94,0.00,,,0.00,Wunderground v.1.15,2013-01-15 02:31:00,
2013-01-14 21:41:00,62.8,61.0,30.14,SSW,194,2.0,2.0,94,0.00,,,0.00,Wunderground v.1.15,2013-01-15 02:41:00,
2013-01-14 21:51:00,62.5,61.0,30.14,SW,221,2.0,2.0,95,0.00,,,0.00,Wunderground v.1.15,2013-01-15 02:51:00,
2013-01-14 22:01:00,62.5,61.0,30.14,SW,223,3.0,3.0,95,0.00,,,0.00,Wunderground v.1.15,2013-01-15 03:01:00,
2013-01-14 22:11:00,62.6,61.1,30.14,SW,223,1.0,1.0,95,0.00,,,0.00,Wunderground v.1.15,2013-01-15 03:11:00,
2013-01-14 22:21:00,62.6,61.1,30.14,SW,225,0.0,0.0,95,0.00,,,0.00,Wunderground v.1.15,2013-01-15 03:21:00,
2013-01-14 22:31:00,63.1,61.3,30.14,SSW,210,0.0,2.0,94,0.00,,,0.00,Wunderground v.1.15,2013-01-15 03:31:00,
2013-01-14 22:41:00,63.8,62.0,30.14,WSW,256,1.0,1.0,94,0.00,,,0.00,Wunderground v.1.15,2013-01-15 03:41:00,
2013-01-14 22:51:00,64.2,62.4,30.15,SSW,202,1.0,1.0,94,0.00,,,0.00,Wunderground v.1.15,2013-01-15 03:51:00,
2013-01-14 23:01:00,64.4,62.9,30.15,WSW,244,1.0,2.0,95,0.00,,,0.00,Wunderground v.1.15,2013-01-15 04:01:00,
2013-01-14 23:11:00,64.6,63.1,30.15,SW,232,1.0,1.0,95,0.00,,,0.00,Wunderground v.1.15,2013-01-15 04:11:00,
2013-01-14 23:21:00,64.7,63.2,30.14,SW,230,1.0,2.0,95,0.00,,,0.00,Wunderground v.1.15,2013-01-15 04:21:00,
2013-01-14 23:31:00,64.6,62.8,30.14,WSW,254,1.0,1.0,94,0.00,,,0.00,Wunderground v.1.15,2013-01-15 04:31:00,
2013-01-14 23:40:00,64.7,62.9,30.14,WSW,244,1.0,1.0,94,0.00,,,0.00,Wunderground v.1.15,2013-01-15 04:40:00,
2013-01-14 23:51:00,64.7,62.9,30.15,West,264,1.0,1.0,94,0.00,,,0.00,Wunderground v.1.15,2013-01-15 04:51:00,